Terminal Aerodrome Forecast
Issued by NWS

Home | Current Version | Previous Version | Text Only | Print | Product List | Glossary On
Versions: 1 2 3 4 5 6 7 8 9 10 11 12 13 14 15 16 17 18 19 20 21 22 23 24 25 26
686
FTUS41 KBUF 181730
TAFJHW
TAF
KJHW 181730Z 1818/1918 26010KT 3SM BR OVC005
     FM181900 27009KT 2SM BR BKN003
     FM190200 26006KT 1/2SM FG OVC002
     FM191200 25007KT P6SM BKN003
     FM191500 25007KT P6SM BKN012
      AMD LTD TO CLD VIS AND WIND=

USA.gov is the U.S. government's official web portal to all federal, state and local government web resources and services.